Lenore, ID (83541)

5:56 AM PDT on August 27, 2014 (GMT -0700)
New Hope Subdivision | Change Station
CLOSE
Current Station
Personal Weather Station
Location: Lenore, ID
Elevation: 2087 ft
Nearby Weather Stations

Elev 2087 ft 46.52 °N, 116.38 °W | Updated 13 seconds ago

Clear
Clear
52.3 °F
Feels Like 52.3 °F
N
0.0
Wind Variable Wind from North
Gusts 0.7 mph

Today
High -- | Low -- °F
--% Chance of Precip.
Yesterday
High -- | Low -- °F
Precip. -- in
5:59 AM 7:33 PM
Waxing Crescent, 3% visible
Pressure 30.01 in
Visibility 10.0 miles
Clouds Clear
Dew Point 47 °F
Humidity 83%
Rainfall 0.00 in
Snow Depth Not available.
UV 0 out of 12
Pollen 7.90 out of 12
Air Quality Not available.
Flu Activity Not available.
METAR KLWS 271156Z AUTO 13004KT 10SM CLR 16/08 A3003 RMK AO2 SLP160 T01560083 10228 20156 53005

More Conditions Fewer Conditions

Pressure 30.01 in
Visibility 10.0 miles
Clouds Clear
Dew Point 47 °F
Humidity 83%
Rainfall 0.00 in
Snow Depth Not available.
UV 0 out of 12
Pollen 7.90 out of 12
Air Quality Not available.
Flu Activity Not available.
METAR KLWS 271156Z AUTO 13004KT 10SM CLR 16/08 A3003 RMK AO2 SLP160 T01560083 10228 20156 53005

More Conditions Fewer Conditions

10-Day Weather Forecast

Almanac

Astronomy

Aug. 27, 2014 Rise Set
Actual Time 5:59 AM PDT 7:33 PM PDT
Civil Twilight 5:27 AM PDT 8:05 PM PDT
Nautical Twilight 4:49 AM PDT 8:43 PM PDT
Astronomical Twilight 4:07 AM PDT 9:25 PM PDT
Moon 8:09 AM PDT 8:17 PM PDT
Length of Visible Light 14h 37m
Length of Day
13h 34m
Tomorrow will be 3m 9s shorter.
Waxing Crescent, 3% of the Moon is Illuminated
Today
Waxing Crescent
Sep 2
First Quarter
Sep 8
Full
Sep 15
Last Quarter
Sep 24
New

Today's Extremes

State Highs State Lows

Community

WunderPhotos

Upload Photos

1,747,676 photos uploaded!

Nearby

Snow Depth

Station Depth Elevation
Elk Butte 0 in 5690 ft
Moscow Mountain 1 in 4700 ft
Sherwin 0 in 3200 ft
Shanghi Summit 0 in 4570 ft
Hemlock Butte 0 in 5810 ft

Earthquake Activity

City Distance Mag. Time & Date
No recent earthquake activity has been reported nearby.
Minimum magnitude displayed is 2.5.

Coastal Water Temperatures

Place Temperature
No Stations Reporting

Nearby Weather Stations